createdAt,value
2023-04-17T00:01:20.900Z,20.02
2023-04-17T00:03:47.747Z,21.00
2023-04-17T00:06:16.294Z,20.55
2023-04-17T00:08:43.511Z,24.33
2023-04-17T00:11:10.296Z,22.15
2023-04-17T00:13:36.993Z,25.23
2023-04-17T00:16:03.761Z,21.33
2023-04-17T00:18:30.495Z,25.40
2023-04-17T00:20:57.254Z,25.58
2023-04-17T00:23:25.511Z,22.75
2023-04-17T00:25:51.998Z,22.40
2023-04-17T00:28:18.479Z,20.75
2023-04-17T00:30:45.026Z,24.40
2023-04-17T00:33:11.528Z,22.33
2023-04-17T00:35:37.971Z,23.45
2023-04-17T00:38:04.557Z,21.70
2023-04-17T00:40:31.204Z,21.50
2023-04-17T00:43:02.147Z,24.45
2023-04-17T00:45:31.994Z,20.65
2023-04-17T00:48:00.581Z,22.73
2023-04-17T00:50:31.057Z,23.77
2023-04-17T00:52:59.421Z,25.50
2023-04-17T00:55:27.318Z,22.95
2023-04-17T00:57:54.664Z,20.90
2023-04-17T01:00:21.224Z,26.33
2023-04-17T01:02:48.265Z,22.00
2023-04-17T01:05:15.002Z,22.48
2023-04-17T01:07:43.075Z,21.70
2023-04-17T01:10:09.786Z,21.17
2023-04-17T01:12:37.510Z,22.50
2023-04-17T01:15:04.930Z,24.83
2023-04-17T01:17:31.548Z,21.83
2023-04-17T01:19:58.208Z,23.45
2023-04-17T01:22:24.725Z,23.17
2023-04-17T01:24:51.182Z,24.10
2023-04-17T01:27:17.684Z,25.25
2023-04-17T01:29:44.399Z,20.65
2023-04-17T01:32:11.282Z,26.35
2023-04-17T01:34:37.813Z,22.50
2023-04-17T01:37:04.493Z,21.10
2023-04-17T01:39:31.236Z,20.25
2023-04-17T01:41:57.881Z,22.52
2023-04-17T01:44:24.457Z,22.10
2023-04-17T01:46:51.185Z,24.33
2023-04-17T01:49:17.830Z,22.55
2023-04-17T01:51:44.311Z,24.00
2023-04-17T01:54:10.874Z,19.58
2023-04-17T01:56:37.436Z,20.23
2023-04-17T01:59:03.924Z,23.17
2023-04-17T02:01:31.002Z,23.55
2023-04-17T02:03:57.669Z,21.60
2023-04-17T02:06:24.798Z,23.30
2023-04-17T02:08:51.256Z,23.92
2023-04-17T02:11:18.280Z,20.67
2023-04-17T02:13:44.758Z,24.30
2023-04-17T02:16:12.525Z,23.75
2023-04-17T02:18:40.669Z,23.08
2023-04-17T02:21:08.650Z,25.00
2023-04-17T02:23:35.364Z,25.25
2023-04-17T02:26:02.023Z,22.70
2023-04-17T02:28:28.674Z,20.73
2023-04-17T02:30:55.514Z,26.35
2023-04-17T02:33:22.269Z,23.38
2023-04-17T02:35:49.008Z,22.05
2023-04-17T02:38:15.661Z,25.63
2023-04-17T02:40:42.407Z,24.58
2023-04-17T02:43:09.082Z,24.20
2023-04-17T02:45:36.553Z,25.38
2023-04-17T02:48:03.345Z,25.30
2023-04-17T02:50:30.053Z,23.25
2023-04-17T02:52:56.737Z,22.95
2023-04-17T02:55:24.267Z,21.95
2023-04-17T02:57:51.058Z,22.70
2023-04-17T03:00:17.757Z,21.02
2023-04-17T03:02:44.595Z,26.67
2023-04-17T03:05:11.586Z,27.45
2023-04-17T03:07:38.318Z,22.20
2023-04-17T03:10:06.342Z,25.00
2023-04-17T03:12:33.094Z,24.95
2023-04-17T03:14:59.764Z,27.20
2023-04-17T03:17:26.775Z,21.92
2023-04-17T03:19:53.474Z,27.40
2023-04-17T03:22:20.318Z,29.55
2023-04-17T03:24:46.999Z,25.45
2023-04-17T03:27:13.635Z,25.13
2023-04-17T03:29:40.321Z,20.63
2023-04-17T03:32:07.083Z,27.63
2023-04-17T03:34:33.811Z,25.08
2023-04-17T03:37:00.534Z,29.90
2023-04-17T03:39:27.224Z,27.08
2023-04-17T03:41:53.883Z,25.80
2023-04-17T03:44:20.893Z,26.50
2023-04-17T03:46:47.556Z,26.20
2023-04-17T03:49:14.501Z,24.98
2023-04-17T03:51:42.679Z,32.00
2023-04-17T03:54:09.603Z,30.50
2023-04-17T03:56:36.349Z,28.45
2023-04-17T03:59:04.345Z,24.20
2023-04-17T04:01:32.692Z,22.92
2023-04-17T04:03:59.911Z,24.55
2023-04-17T04:06:29.736Z,24.70
2023-04-17T04:11:23.658Z,23.30
2023-04-17T04:13:50.364Z,26.48
2023-04-17T04:16:17.140Z,19.85
2023-04-17T04:18:43.871Z,25.10
2023-04-17T04:21:12.065Z,22.77
2023-04-17T04:23:41.600Z,23.38
2023-04-17T04:26:08.271Z,22.67
2023-04-17T04:28:35.004Z,22.83
2023-04-17T04:31:02.658Z,25.08
2023-04-17T04:33:29.737Z,20.90
2023-04-17T04:36:00.856Z,21.90
2023-04-17T04:38:32.350Z,19.90
2023-04-17T04:41:01.478Z,22.70
2023-04-17T04:43:29.072Z,24.90
2023-04-17T04:45:56.044Z,22.48
2023-04-17T04:48:22.965Z,21.77
2023-04-17T04:50:49.799Z,27.67
2023-04-17T04:53:16.549Z,22.15
2023-04-17T04:55:43.444Z,20.92
2023-04-17T04:58:10.290Z,18.13
2023-04-17T05:00:37.048Z,24.98
2023-04-17T05:03:03.937Z,23.77
2023-04-17T05:05:30.871Z,24.30
2023-04-17T05:07:57.612Z,24.33
2023-04-17T05:10:24.260Z,19.42
2023-04-17T05:12:51.058Z,21.25
2023-04-17T05:15:17.759Z,25.77
2023-04-17T05:17:44.782Z,31.77
2023-04-17T05:20:14.953Z,36.08
2023-04-17T05:22:41.824Z,29.75
2023-04-17T05:25:08.729Z,27.27
2023-04-17T05:27:35.622Z,33.53
2023-04-17T05:30:02.377Z,27.75
2023-04-17T05:32:31.106Z,25.27
2023-04-17T05:34:57.880Z,27.63
2023-04-17T05:37:24.557Z,26.95
2023-04-17T05:39:51.349Z,23.70
2023-04-17T05:42:18.029Z,26.48
2023-04-17T05:44:44.718Z,24.20
2023-04-17T05:47:11.389Z,26.30
2023-04-17T05:49:40.104Z,21.67
2023-04-17T05:52:08.412Z,24.48
2023-04-17T05:54:34.916Z,24.70
2023-04-17T05:57:02.263Z,19.83
2023-04-17T05:59:28.798Z,21.92
2023-04-17T06:01:55.497Z,29.80
2023-04-17T06:04:22.652Z,25.77
2023-04-17T06:06:49.342Z,26.70
2023-04-17T06:09:15.894Z,25.77
2023-04-17T06:11:42.421Z,24.10
2023-04-17T06:14:08.900Z,30.65
2023-04-17T06:16:35.547Z,32.95
2023-04-17T06:19:02.111Z,28.88
2023-04-17T06:21:28.688Z,30.38
2023-04-17T06:23:55.229Z,30.65
2023-04-17T06:26:21.721Z,34.35
2023-04-17T06:28:48.332Z,34.58
2023-04-17T06:31:14.940Z,36.83
2023-04-17T06:33:41.435Z,31.27
2023-04-17T06:36:08.028Z,33.92
2023-04-17T06:38:34.561Z,36.28
2023-04-17T06:41:01.040Z,32.65
2023-04-17T06:43:27.612Z,30.48
2023-04-17T06:45:54.873Z,34.25
2023-04-17T06:48:21.379Z,35.40
2023-04-17T06:50:48.429Z,34.45
2023-04-17T06:53:15.005Z,33.60
2023-04-17T06:55:41.692Z,34.20
2023-04-17T06:58:08.900Z,37.55
2023-04-17T07:00:35.405Z,31.73
2023-04-17T07:03:02.534Z,32.35
2023-04-17T07:05:29.155Z,27.77
2023-04-17T07:07:55.648Z,28.33
2023-04-17T07:10:22.439Z,25.25
2023-04-17T07:12:49.058Z,27.67
2023-04-17T07:15:16.240Z,26.48
2023-04-17T07:17:45.160Z,28.15
2023-04-17T07:20:11.993Z,24.13
2023-04-17T07:22:38.904Z,25.13
2023-04-17T07:25:06.373Z,23.27
2023-04-17T07:27:33.212Z,22.10
2023-04-17T07:29:59.762Z,20.83
2023-04-17T07:32:26.492Z,22.77
2023-04-17T07:34:53.364Z,21.10
2023-04-17T07:37:19.948Z,25.00
2023-04-17T07:39:49.868Z,15.55
2023-04-17T07:42:16.517Z,19.83
2023-04-17T07:44:43.000Z,18.15
2023-04-17T07:47:09.618Z,17.17
2023-04-17T07:49:36.185Z,19.08
2023-04-17T07:52:02.646Z,15.82
2023-04-17T07:54:31.205Z,14.40
2023-04-17T07:57:02.614Z,15.85
2023-04-17T07:59:30.035Z,11.13
2023-04-17T08:01:57.478Z,13.93
2023-04-17T08:04:25.624Z,13.48
2023-04-17T08:06:52.582Z,15.15
2023-04-17T08:09:21.454Z,12.50
2023-04-17T08:11:57.084Z,16.08
2023-04-17T08:14:24.913Z,12.18
2023-04-17T08:16:51.843Z,12.80
2023-04-17T08:19:18.614Z,14.95
2023-04-17T08:21:48.053Z,18.58
2023-04-17T08:24:16.276Z,12.27
2023-04-17T08:26:43.870Z,13.50
2023-04-17T08:29:11.030Z,16.20
2023-04-17T08:31:39.700Z,12.90
2023-04-17T08:34:14.369Z,18.30
2023-04-17T08:39:11.963Z,12.02
2023-04-17T08:44:24.150Z,13.07
2023-04-17T08:46:52.111Z,15.45
2023-04-17T08:49:18.857Z,15.05
2023-04-17T08:51:47.056Z,13.63
2023-04-17T08:54:13.799Z,8.38
2023-04-17T08:56:40.515Z,12.68
2023-04-17T08:59:07.358Z,14.65
2023-04-17T09:01:34.738Z,15.73
2023-04-17T09:04:01.766Z,13.70
2023-04-17T09:06:29.640Z,14.88
2023-04-17T09:08:59.318Z,17.55
2023-04-17T09:11:27.365Z,15.60
2023-04-17T09:13:54.443Z,17.48
2023-04-17T09:16:21.225Z,16.08
2023-04-17T09:18:48.413Z,15.52
2023-04-17T09:21:18.875Z,14.88
2023-04-17T09:23:49.998Z,16.77
2023-04-17T09:26:18.364Z,17.85
2023-04-17T09:29:17.697Z,16.48
2023-04-17T09:31:45.104Z,20.40
2023-04-17T09:34:13.281Z,20.15
2023-04-17T09:36:41.970Z,17.25
2023-04-17T09:39:20.649Z,22.90
2023-04-17T09:41:47.699Z,17.30
2023-04-17T09:44:29.929Z,23.08
2023-04-17T09:46:56.969Z,18.92
2023-04-17T09:49:40.531Z,19.48
2023-04-17T09:52:07.203Z,17.63
2023-04-17T09:54:37.724Z,17.23
2023-04-17T09:57:08.383Z,16.75
2023-04-17T09:59:45.188Z,16.15
2023-04-17T10:02:17.367Z,18.30
2023-04-17T10:04:45.839Z,19.25
2023-04-17T10:07:13.343Z,17.30
2023-04-17T10:09:41.679Z,15.13
2023-04-17T10:12:19.991Z,18.65
2023-04-17T10:14:52.267Z,19.67
2023-04-17T10:17:31.852Z,19.65
2023-04-17T10:20:19.827Z,18.35
2023-04-17T10:22:56.985Z,15.15
2023-04-17T10:25:28.315Z,16.73
2023-04-17T10:27:55.884Z,17.08
2023-04-17T10:30:23.736Z,13.73
2023-04-17T10:33:12.877Z,15.43
2023-04-17T10:36:19.364Z,15.50
2023-04-17T10:38:46.663Z,15.70
2023-04-17T10:41:13.313Z,12.52
2023-04-17T10:43:42.451Z,15.20
2023-04-17T10:46:12.617Z,12.80
2023-04-17T10:48:52.452Z,11.82
2023-04-17T10:51:28.777Z,11.73
2023-04-17T10:53:56.948Z,13.90
2023-04-17T10:56:30.499Z,11.50
2023-04-17T10:58:58.664Z,13.10
2023-04-17T11:01:36.695Z,10.68
2023-04-17T11:04:04.679Z,14.18
2023-04-17T11:06:33.029Z,12.90
2023-04-17T11:09:00.326Z,11.80
2023-04-17T11:11:40.437Z,10.05
2023-04-17T11:14:15.121Z,9.05
2023-04-17T11:16:44.559Z,8.18
2023-04-17T11:19:16.976Z,9.35
2023-04-17T11:21:44.902Z,10.93
2023-04-17T11:24:12.030Z,10.43
2023-04-17T11:26:46.353Z,10.77
2023-04-17T11:29:23.309Z,9.15
2023-04-17T11:31:52.276Z,10.32
2023-04-17T11:34:19.678Z,12.38
2023-04-17T11:36:53.926Z,8.90
2023-04-17T11:39:22.568Z,12.40
2023-04-17T11:41:51.705Z,12.68
2023-04-17T11:44:22.642Z,11.05
2023-04-17T11:46:59.186Z,9.90
2023-04-17T11:49:31.399Z,10.23
2023-04-17T11:52:03.102Z,8.25
2023-04-17T11:54:34.003Z,12.63
2023-04-17T11:57:06.313Z,9.40
2023-04-17T11:59:35.795Z,11.18
2023-04-17T12:04:33.331Z,12.95
2023-04-17T12:07:01.745Z,10.38
2023-04-17T12:09:31.577Z,8.43
2023-04-17T12:12:03.775Z,11.93
2023-04-17T12:14:31.277Z,12.70
2023-04-17T12:16:58.102Z,12.85
2023-04-17T12:19:26.920Z,10.18
2023-04-17T12:21:54.315Z,9.57
2023-04-17T12:24:24.424Z,8.65
2023-04-17T12:26:51.616Z,10.93
2023-04-17T12:29:22.076Z,10.95
2023-04-17T12:31:56.358Z,8.98
2023-04-17T12:34:24.228Z,9.30
2023-04-17T12:36:51.594Z,9.32
2023-04-17T12:39:18.516Z,11.90
2023-04-17T12:41:45.238Z,12.30
2023-04-17T12:44:12.449Z,9.63
2023-04-17T12:46:39.326Z,8.68
2023-04-17T12:49:06.013Z,13.02
2023-04-17T12:51:37.553Z,8.02
2023-04-17T12:54:04.428Z,10.05
2023-04-17T12:56:31.146Z,10.95
2023-04-17T12:58:59.415Z,12.90
2023-04-17T13:01:28.229Z,10.25
2023-04-17T13:03:55.408Z,11.65
2023-04-17T13:06:22.307Z,12.10
2023-04-17T13:08:49.069Z,11.52
2023-04-17T13:11:16.212Z,10.63
2023-04-17T13:13:42.891Z,15.13
2023-04-17T13:16:09.875Z,12.50
2023-04-17T13:18:37.434Z,12.50
2023-04-17T13:21:04.282Z,9.52
2023-04-17T13:23:31.200Z,15.32
2023-04-17T13:25:57.947Z,8.23
2023-04-17T13:28:24.633Z,10.27
2023-04-17T13:30:52.546Z,18.38
2023-04-17T13:33:19.292Z,11.15
2023-04-17T13:35:45.988Z,13.52
2023-04-17T13:38:12.652Z,9.93
2023-04-17T13:40:40.815Z,11.10
2023-04-17T13:43:07.520Z,8.65
2023-04-17T13:45:34.618Z,11.52
2023-04-17T13:48:01.551Z,11.68
2023-04-17T13:50:28.279Z,13.43
2023-04-17T13:52:54.973Z,11.10
2023-04-17T13:55:21.665Z,14.90
2023-04-17T13:57:48.320Z,10.82
2023-04-17T14:00:15.525Z,8.27
2023-04-17T14:02:42.645Z,10.18
2023-04-17T14:05:09.905Z,15.00
2023-04-17T14:07:37.705Z,10.43
2023-04-17T14:10:04.772Z,9.98
2023-04-17T14:12:31.473Z,10.95
2023-04-17T14:14:58.374Z,9.10
2023-04-17T14:17:25.375Z,12.10
2023-04-17T14:19:52.867Z,17.25
2023-04-17T14:22:20.055Z,11.25
2023-04-17T14:24:46.829Z,10.88
2023-04-17T14:27:13.578Z,9.85
2023-04-17T14:29:40.472Z,12.60
2023-04-17T14:32:07.306Z,14.45
2023-04-17T14:34:33.773Z,12.07
2023-04-17T14:37:00.276Z,12.80
2023-04-17T14:39:27.902Z,9.77
2023-04-17T14:41:56.960Z,12.52
2023-04-17T14:44:24.493Z,15.65
2023-04-17T14:46:50.999Z,10.73
2023-04-17T14:49:17.559Z,9.73
2023-04-17T14:51:44.337Z,9.68
2023-04-17T14:54:11.094Z,9.68
2023-04-17T14:56:37.719Z,10.32
2023-04-17T14:59:05.305Z,8.75
2023-04-17T15:01:32.071Z,7.80
2023-04-17T15:03:59.084Z,10.40
2023-04-17T15:06:26.092Z,10.93
2023-04-17T15:08:52.588Z,7.57
2023-04-17T15:11:19.215Z,5.95
2023-04-17T15:13:45.783Z,10.30
2023-04-17T15:16:12.365Z,6.22
2023-04-17T15:18:39.386Z,7.50
2023-04-17T15:21:06.388Z,8.00
2023-04-17T15:23:34.492Z,8.40
2023-04-17T15:26:01.389Z,6.97
2023-04-17T15:28:28.076Z,10.63
2023-04-17T15:30:55.928Z,6.82
2023-04-17T15:33:22.696Z,7.40
2023-04-17T15:35:55.550Z,5.38
2023-04-17T15:38:22.108Z,7.18
2023-04-17T15:40:48.604Z,12.55
2023-04-17T15:43:15.224Z,6.68
2023-04-17T15:45:41.957Z,13.18
2023-04-17T15:48:08.637Z,8.55
2023-04-17T15:50:35.463Z,9.27
2023-04-17T15:53:02.785Z,11.23
2023-04-17T15:55:29.464Z,10.85
2023-04-17T15:57:56.147Z,11.82
2023-04-17T16:00:22.894Z,13.27
2023-04-17T16:02:49.598Z,11.50
2023-04-17T16:05:16.785Z,15.18
2023-04-17T16:07:43.662Z,14.55
2023-04-17T16:10:14.372Z,9.27
2023-04-17T16:12:45.387Z,13.35
2023-04-17T16:15:16.554Z,17.33
2023-04-17T16:17:43.595Z,14.30
2023-04-17T16:20:11.016Z,16.27
2023-04-17T16:22:37.524Z,11.73
2023-04-17T16:25:04.889Z,11.93
2023-04-17T16:27:32.444Z,15.07
2023-04-17T16:29:59.412Z,15.10
2023-04-17T16:32:27.447Z,12.68
2023-04-17T16:34:54.307Z,19.05
2023-04-17T16:37:20.988Z,12.68
2023-04-17T16:39:47.515Z,15.45
2023-04-17T16:42:14.560Z,17.55
2023-04-17T16:44:41.099Z,13.80
2023-04-17T16:47:13.152Z,16.00
2023-04-17T16:49:40.229Z,15.48
2023-04-17T16:52:06.821Z,12.13
2023-04-17T16:54:33.333Z,15.10
2023-04-17T16:56:59.802Z,15.80
2023-04-17T16:59:26.716Z,15.93
2023-04-17T17:01:53.224Z,14.35
2023-04-17T17:04:19.819Z,12.90
2023-04-17T17:06:46.492Z,15.00
2023-04-17T17:09:13.224Z,14.65
2023-04-17T17:11:40.216Z,13.68
2023-04-17T17:14:06.745Z,14.55
2023-04-17T17:16:33.279Z,11.60
2023-04-17T17:19:00.200Z,11.88
2023-04-17T17:21:26.679Z,12.80
2023-04-17T17:23:53.194Z,13.45
2023-04-17T17:26:19.715Z,10.80
2023-04-17T17:28:50.950Z,15.25
2023-04-17T17:31:18.430Z,12.13
2023-04-17T17:33:49.774Z,12.70
2023-04-17T17:36:16.645Z,13.32
2023-04-17T17:38:43.921Z,9.85
2023-04-17T17:41:11.323Z,12.40
2023-04-17T17:43:37.912Z,12.27
2023-04-17T17:46:04.625Z,11.35
2023-04-17T17:48:31.147Z,11.50
2023-04-17T17:50:57.857Z,11.23
2023-04-17T17:53:26.923Z,11.35
2023-04-17T17:55:54.887Z,12.63
2023-04-17T17:58:21.793Z,12.70
2023-04-17T18:00:49.666Z,11.57
2023-04-17T18:03:16.952Z,12.88
2023-04-17T18:05:44.512Z,11.50
2023-04-17T18:08:11.020Z,12.80
2023-04-17T18:10:37.619Z,12.13
2023-04-17T18:13:04.778Z,15.18
2023-04-17T18:15:31.541Z,9.50
2023-04-17T18:17:58.089Z,9.65
2023-04-17T18:20:24.722Z,12.75
2023-04-17T18:22:51.935Z,14.05
2023-04-17T18:25:18.640Z,11.35
2023-04-17T18:27:45.182Z,11.48
2023-04-17T18:30:12.167Z,11.05
2023-04-17T18:32:38.833Z,10.32
2023-04-17T18:35:06.130Z,9.55
2023-04-17T18:37:32.795Z,8.35
2023-04-17T18:39:59.461Z,11.25
2023-04-17T18:42:26.123Z,9.38
2023-04-17T18:44:52.813Z,10.63
2023-04-17T18:47:19.514Z,7.82
2023-04-17T18:49:46.301Z,9.40
2023-04-17T18:52:12.990Z,7.57
2023-04-17T18:54:39.648Z,7.50
2023-04-17T18:57:06.452Z,11.18
2023-04-17T18:59:33.311Z,8.55
2023-04-17T19:02:00.201Z,10.05
2023-04-17T19:04:27.233Z,10.10
2023-04-17T19:06:53.928Z,9.82
2023-04-17T19:09:20.643Z,9.95
2023-04-17T19:11:47.478Z,10.57
2023-04-17T19:14:14.392Z,10.02
2023-04-17T19:16:41.411Z,10.73
2023-04-17T19:19:10.908Z,8.07
2023-04-17T19:21:37.815Z,9.27
2023-04-17T19:24:04.761Z,11.20
2023-04-17T19:26:31.505Z,11.93
2023-04-17T19:28:58.889Z,11.88
2023-04-17T19:31:25.684Z,11.02
2023-04-17T19:33:55.956Z,11.77
2023-04-17T19:36:23.247Z,7.88
2023-04-17T19:38:50.937Z,9.63
2023-04-17T19:41:19.183Z,12.85
2023-04-17T19:43:47.002Z,10.75
2023-04-17T19:46:14.129Z,13.70
2023-04-17T19:48:43.454Z,14.02
2023-04-17T19:51:11.161Z,10.43
2023-04-17T19:53:39.743Z,8.73
2023-04-17T19:56:08.617Z,10.77
2023-04-17T19:58:36.717Z,13.10
2023-04-17T20:01:04.008Z,10.57
2023-04-17T20:03:32.473Z,9.88
2023-04-17T20:06:00.435Z,16.90
2023-04-17T20:08:27.461Z,10.55
2023-04-17T20:10:54.187Z,11.88
2023-04-17T20:13:21.390Z,13.82
2023-04-17T20:15:48.504Z,13.43
2023-04-17T20:18:15.288Z,12.95
2023-04-17T20:20:42.055Z,11.23
2023-04-17T20:23:09.087Z,11.82
2023-04-17T20:25:35.832Z,15.48
2023-04-17T20:28:02.927Z,13.55
2023-04-17T20:30:30.259Z,13.93
2023-04-17T20:32:57.353Z,14.25
2023-04-17T20:35:24.667Z,14.85
2023-04-17T20:37:52.404Z,17.30
2023-04-17T20:40:19.650Z,12.35
2023-04-17T20:42:47.405Z,12.82
2023-04-17T20:45:14.987Z,18.25
2023-04-17T20:47:56.503Z,11.45
2023-04-17T20:50:24.857Z,11.15
2023-04-17T20:52:51.590Z,12.35
2023-04-17T20:55:19.715Z,13.43
2023-04-17T20:57:47.049Z,12.38
2023-04-17T21:00:14.239Z,15.05
2023-04-17T21:02:41.334Z,12.00
2023-04-17T21:05:08.701Z,14.13
2023-04-17T21:07:36.034Z,13.45
2023-04-17T21:10:03.116Z,14.32
2023-04-17T21:12:29.785Z,13.45
2023-04-17T21:14:56.457Z,13.02
2023-04-17T21:17:23.170Z,12.57
2023-04-17T21:19:50.040Z,12.73
2023-04-17T21:22:16.736Z,11.82
2023-04-17T21:24:43.473Z,13.60
2023-04-17T21:27:10.346Z,13.88
2023-04-17T21:29:37.511Z,13.00
2023-04-17T21:32:04.344Z,14.50
2023-04-17T21:34:31.067Z,16.30
2023-04-17T21:36:59.629Z,10.15
2023-04-17T21:39:26.492Z,11.73
2023-04-17T21:41:53.213Z,15.25
2023-04-17T21:44:20.011Z,12.02
2023-04-17T21:46:46.825Z,13.40
2023-04-17T21:49:13.952Z,13.50
2023-04-17T21:51:40.811Z,12.05
2023-04-17T21:54:08.933Z,15.55
2023-04-17T21:56:36.145Z,11.68
2023-04-17T21:59:03.394Z,13.63
2023-04-17T22:01:30.115Z,13.73
2023-04-17T22:03:56.874Z,12.52
2023-04-17T22:06:24.057Z,14.32
2023-04-17T22:08:50.767Z,13.85
2023-04-17T22:11:17.671Z,13.90
2023-04-17T22:13:45.801Z,15.02
2023-04-17T22:16:12.531Z,13.15
2023-04-17T22:18:39.199Z,15.82
2023-04-17T22:21:06.040Z,13.50
2023-04-17T22:23:32.491Z,16.52
2023-04-17T22:25:58.988Z,14.73
2023-04-17T22:28:28.903Z,12.50
2023-04-17T22:30:55.456Z,11.82
2023-04-17T22:33:21.953Z,12.57
2023-04-17T22:35:49.156Z,11.45
2023-04-17T22:38:16.125Z,11.02
2023-04-17T22:40:42.644Z,9.32
2023-04-17T22:43:09.115Z,8.63
2023-04-17T22:45:35.657Z,6.60
2023-04-17T22:48:02.260Z,9.13
2023-04-17T22:50:30.515Z,7.95
2023-04-17T22:52:57.743Z,8.90
2023-04-17T22:55:24.248Z,7.50
2023-04-17T22:57:50.726Z,11.63
2023-04-17T23:00:19.878Z,6.88
2023-04-17T23:02:47.082Z,6.20
2023-04-17T23:05:13.790Z,5.68
2023-04-17T23:07:40.979Z,7.13
2023-04-17T23:10:07.863Z,6.63
2023-04-17T23:12:34.638Z,8.18
2023-04-17T23:15:01.251Z,7.40
2023-04-17T23:17:27.862Z,7.25
2023-04-17T23:19:54.401Z,7.03
2023-04-17T23:22:20.900Z,6.07
2023-04-17T23:24:47.414Z,6.07
2023-04-17T23:27:13.884Z,12.73
2023-04-17T23:29:40.387Z,8.48
2023-04-17T23:32:07.353Z,6.20
2023-04-17T23:34:33.870Z,7.22
2023-04-17T23:37:02.357Z,10.25
2023-04-17T23:39:28.989Z,7.80
2023-04-17T23:41:55.489Z,7.35
2023-04-17T23:44:21.950Z,8.98
2023-04-17T23:46:48.510Z,9.68
2023-04-17T23:49:15.018Z,7.97
2023-04-17T23:51:41.486Z,11.57
2023-04-17T23:54:07.990Z,10.88
2023-04-17T23:56:34.642Z,11.73
2023-04-17T23:59:01.110Z,11.07
